sensor_id;sensor_type;location;lat;lon;timestamp;pressure;altitude;pressure_sealevel;temperature
18161;BMP280;9205;52.032;4.314;2023-12-28T00:02:11;100643.09;;;12.45
18161;BMP280;9205;52.032;4.314;2023-12-28T00:04:39;100642.19;;;12.46
18161;BMP280;9205;52.032;4.314;2023-12-28T00:07:07;100651.56;;;12.45
18161;BMP280;9205;52.032;4.314;2023-12-28T00:09:34;100642.53;;;12.35
18161;BMP280;9205;52.032;4.314;2023-12-28T00:12:02;100644.88;;;12.41
18161;BMP280;9205;52.032;4.314;2023-12-28T00:14:29;100665.38;;;12.38
18161;BMP280;9205;52.032;4.314;2023-12-28T00:16:56;100659.53;;;12.35
18161;BMP280;9205;52.032;4.314;2023-12-28T00:19:24;100649.50;;;12.30
18161;BMP280;9205;52.032;4.314;2023-12-28T00:21:51;100653.78;;;12.28
18161;BMP280;9205;52.032;4.314;2023-12-28T00:24:20;100658.84;;;12.30
18161;BMP280;9205;52.032;4.314;2023-12-28T00:26:47;100647.75;;;12.32
18161;BMP280;9205;52.032;4.314;2023-12-28T00:29:15;100664.09;;;12.25
18161;BMP280;9205;52.032;4.314;2023-12-28T00:31:42;100659.88;;;12.24
18161;BMP280;9205;52.032;4.314;2023-12-28T00:34:09;100665.09;;;12.20
18161;BMP280;9205;52.032;4.314;2023-12-28T00:36:36;100667.53;;;12.23
18161;BMP280;9205;52.032;4.314;2023-12-28T00:39:03;100662.28;;;12.29
18161;BMP280;9205;52.032;4.314;2023-12-28T00:41:32;100664.38;;;12.16
18161;BMP280;9205;52.032;4.314;2023-12-28T00:43:59;100658.56;;;12.11
18161;BMP280;9205;52.032;4.314;2023-12-28T00:46:27;100660.16;;;12.15
18161;BMP280;9205;52.032;4.314;2023-12-28T00:48:54;100669.47;;;12.16
18161;BMP280;9205;52.032;4.314;2023-12-28T00:51:21;100658.81;;;12.04
18161;BMP280;9205;52.032;4.314;2023-12-28T00:53:49;100663.97;;;12.02
18161;BMP280;9205;52.032;4.314;2023-12-28T00:56:16;100663.16;;;12.00
18161;BMP280;9205;52.032;4.314;2023-12-28T00:58:45;100653.81;;;12.01
18161;BMP280;9205;52.032;4.314;2023-12-28T01:01:12;100669.38;;;11.90
18161;BMP280;9205;52.032;4.314;2023-12-28T01:03:39;100651.53;;;11.92
18161;BMP280;9205;52.032;4.314;2023-12-28T01:06:07;100666.06;;;11.88
18161;BMP280;9205;52.032;4.314;2023-12-28T01:08:34;100665.16;;;11.91
18161;BMP280;9205;52.032;4.314;2023-12-28T01:11:02;100670.25;;;11.91
18161;BMP280;9205;52.032;4.314;2023-12-28T01:13:29;100657.28;;;11.98
18161;BMP280;9205;52.032;4.314;2023-12-28T01:15:57;100675.34;;;11.91
18161;BMP280;9205;52.032;4.314;2023-12-28T01:18:25;100665.91;;;11.93
18161;BMP280;9205;52.032;4.314;2023-12-28T01:20:52;100665.78;;;11.97
18161;BMP280;9205;52.032;4.314;2023-12-28T01:23:18;100656.66;;;11.90
18161;BMP280;9205;52.032;4.314;2023-12-28T01:25:45;100657.34;;;11.95
18161;BMP280;9205;52.032;4.314;2023-12-28T01:28:12;100661.56;;;11.96
18161;BMP280;9205;52.032;4.314;2023-12-28T01:30:39;100660.81;;;11.94
18161;BMP280;9205;52.032;4.314;2023-12-28T01:33:08;100670.25;;;11.89
18161;BMP280;9205;52.032;4.314;2023-12-28T01:35:36;100680.63;;;11.83
18161;BMP280;9205;52.032;4.314;2023-12-28T01:38:03;100689.88;;;11.86
18161;BMP280;9205;52.032;4.314;2023-12-28T01:40:31;100688.97;;;11.88
18161;BMP280;9205;52.032;4.314;2023-12-28T01:42:58;100689.09;;;11.84
18161;BMP280;9205;52.032;4.314;2023-12-28T01:45:25;100685.66;;;11.85
18161;BMP280;9205;52.032;4.314;2023-12-28T01:47:55;100684.84;;;11.84
18161;BMP280;9205;52.032;4.314;2023-12-28T01:50:25;100675.34;;;11.91
18161;BMP280;9205;52.032;4.314;2023-12-28T01:52:55;100696.53;;;11.91
18161;BMP280;9205;52.032;4.314;2023-12-28T01:55:25;100678.25;;;12.06
18161;BMP280;9205;52.032;4.314;2023-12-28T01:57:53;100685.47;;;11.92
18161;BMP280;9205;52.032;4.314;2023-12-28T02:00:22;100694.84;;;11.90
18161;BMP280;9205;52.032;4.314;2023-12-28T02:02:51;100696.69;;;11.85
18161;BMP280;9205;52.032;4.314;2023-12-28T02:05:19;100700.19;;;11.83
18161;BMP280;9205;52.032;4.314;2023-12-28T02:07:48;100700.78;;;11.91
18161;BMP280;9205;52.032;4.314;2023-12-28T02:10:15;100681.16;;;11.94
18161;BMP280;9205;52.032;4.314;2023-12-28T02:12:42;100689.00;;;11.87
18161;BMP280;9205;52.032;4.314;2023-12-28T02:15:10;100689.88;;;11.86
18161;BMP280;9205;52.032;4.314;2023-12-28T02:17:47;100669.47;;;11.87
18161;BMP280;9205;52.032;4.314;2023-12-28T02:20:16;100669.47;;;11.87
18161;BMP280;9205;52.032;4.314;2023-12-28T02:22:46;100674.47;;;11.90
18161;BMP280;9205;52.032;4.314;2023-12-28T02:25:16;100681.50;;;11.82
18161;BMP280;9205;52.032;4.314;2023-12-28T02:27:45;100683.94;;;11.87
18161;BMP280;9205;52.032;4.314;2023-12-28T02:30:16;100688.19;;;11.86
18161;BMP280;9205;52.032;4.314;2023-12-28T02:32:53;100686.59;;;11.82
18161;BMP280;9205;52.032;4.314;2023-12-28T02:35:27;100687.47;;;11.81
18161;BMP280;9205;52.032;4.314;2023-12-28T02:38:02;100681.50;;;11.82
18161;BMP280;9205;52.032;4.314;2023-12-28T02:40:36;100690.00;;;11.81
18161;BMP280;9205;52.032;4.314;2023-12-28T02:43:04;100696.16;;;11.74
18161;BMP280;9205;52.032;4.314;2023-12-28T02:45:31;100700.06;;;11.86
18161;BMP280;9205;52.032;4.314;2023-12-28T02:47:58;100708.69;;;11.82
18161;BMP280;9205;52.032;4.314;2023-12-28T02:50:25;100695.09;;;11.83
18161;BMP280;9205;52.032;4.314;2023-12-28T02:52:52;100699.38;;;11.81
18161;BMP280;9205;52.032;4.314;2023-12-28T02:55:20;100689.09;;;11.84
18161;BMP280;9205;52.032;4.314;2023-12-28T02:57:50;100685.72;;;11.83
18161;BMP280;9205;52.032;4.314;2023-12-28T03:00:17;100682.34;;;11.83
18161;BMP280;9205;52.032;4.314;2023-12-28T03:02:45;100686.69;;;11.79
18161;BMP280;9205;52.032;4.314;2023-12-28T03:05:12;100694.38;;;11.78
18161;BMP280;9205;52.032;4.314;2023-12-28T03:07:39;100685.84;;;11.79
18161;BMP280;9205;52.032;4.314;2023-12-28T03:10:09;100654.31;;;11.84
18161;BMP280;9205;52.032;4.314;2023-12-28T03:12:38;100668.91;;;11.78
18161;BMP280;9205;52.032;4.314;2023-12-28T03:15:07;100661.00;;;11.87
18161;BMP280;9205;52.032;4.314;2023-12-28T03:17:34;100673.38;;;11.72
18161;BMP280;9205;52.032;4.314;2023-12-28T03:20:03;100664.81;;;11.72
18161;BMP280;9205;52.032;4.314;2023-12-28T03:22:31;100652.91;;;11.74
18161;BMP280;9205;52.032;4.314;2023-12-28T03:24:58;100645.00;;;11.83
18161;BMP280;9205;52.032;4.314;2023-12-28T03:27:25;100667.25;;;11.77
18161;BMP280;9205;52.032;4.314;2023-12-28T03:29:55;100659.59;;;11.78
18161;BMP280;9205;52.032;4.314;2023-12-28T03:32:23;100655.38;;;11.77
18161;BMP280;9205;52.032;4.314;2023-12-28T03:34:50;100662.34;;;11.71
18161;BMP280;9205;52.032;4.314;2023-12-28T03:37:18;100641.63;;;11.83
18161;BMP280;9205;52.032;4.314;2023-12-28T03:39:45;100641.53;;;11.86
18161;BMP280;9205;52.032;4.314;2023-12-28T03:42:13;100645.69;;;11.88
18161;BMP280;9205;52.032;4.314;2023-12-28T03:44:40;100649.72;;;11.95
18161;BMP280;9205;52.032;4.314;2023-12-28T03:47:08;100641.63;;;11.83
18161;BMP280;9205;52.032;4.314;2023-12-28T03:49:36;100641.41;;;11.90
18161;BMP280;9205;52.032;4.314;2023-12-28T03:52:04;100647.28;;;11.92
18161;BMP280;9205;52.032;4.314;2023-12-28T03:54:31;100653.31;;;11.88
18161;BMP280;9205;52.032;4.314;2023-12-28T03:56:58;100650.56;;;11.96
18161;BMP280;9205;52.032;4.314;2023-12-28T03:59:25;100652.19;;;11.98
18161;BMP280;9205;52.032;4.314;2023-12-28T04:01:53;100663.97;;;12.02
18161;BMP280;9205;52.032;4.314;2023-12-28T04:04:20;100645.22;;;12.03
18161;BMP280;9205;52.032;4.314;2023-12-28T04:06:50;100651.03;;;12.08
18161;BMP280;9205;52.032;4.314;2023-12-28T04:09:18;100653.59;;;12.08
18161;BMP280;9205;52.032;4.314;2023-12-28T04:11:46;100660.47;;;12.05
18161;BMP280;9205;52.032;4.314;2023-12-28T04:14:13;100651.91;;;12.07
18161;BMP280;9205;52.032;4.314;2023-12-28T04:16:41;100673.16;;;12.06
18161;BMP280;9205;52.032;4.314;2023-12-28T04:19:08;100646.91;;;12.04
18161;BMP280;9205;52.032;4.314;2023-12-28T04:21:35;100652.97;;;12.00
18161;BMP280;9205;52.032;4.314;2023-12-28T04:24:06;100645.22;;;12.05
18161;BMP280;9205;52.032;4.314;2023-12-28T04:26:33;100650.97;;;12.10
18161;BMP280;9205;52.032;4.314;2023-12-28T04:29:01;100660.22;;;12.14
18161;BMP280;9205;52.032;4.314;2023-12-28T04:31:28;100669.59;;;12.12
18161;BMP280;9205;52.032;4.314;2023-12-28T04:33:55;100677.09;;;12.16
18161;BMP280;9205;52.032;4.314;2023-12-28T04:36:23;100665.00;;;12.23
18161;BMP280;9205;52.032;4.314;2023-12-28T04:38:50;100665.31;;;12.14
18161;BMP280;9205;52.032;4.314;2023-12-28T04:41:19;100660.84;;;12.20
18161;BMP280;9205;52.032;4.314;2023-12-28T04:43:46;100672.63;;;12.23
18161;BMP280;9205;52.032;4.314;2023-12-28T04:46:14;100672.03;;;12.15
18161;BMP280;9205;52.032;4.314;2023-12-28T04:48:41;100682.16;;;12.18
18161;BMP280;9205;52.032;4.314;2023-12-28T04:51:08;100666.91;;;12.16
18161;BMP280;9205;52.032;4.314;2023-12-28T04:53:35;100666.81;;;12.19
18161;BMP280;9205;52.032;4.314;2023-12-28T04:56:03;100676.09;;;12.22
18161;BMP280;9205;52.032;4.314;2023-12-28T04:58:32;100665.78;;;12.25
18161;BMP280;9205;52.032;4.314;2023-12-28T05:01:01;100683.41;;;12.32
18161;BMP280;9205;52.032;4.314;2023-12-28T05:03:28;100689.31;;;12.33
18161;BMP280;9205;52.032;4.314;2023-12-28T05:05:55;100674.97;;;12.30
18161;BMP280;9205;52.032;4.314;2023-12-28T05:08:22;100679.97;;;12.33
18161;BMP280;9205;52.032;4.314;2023-12-28T05:10:50;100675.41;;;12.43
18161;BMP280;9205;52.032;4.314;2023-12-28T05:13:17;100678.00;;;12.41
18161;BMP280;9205;52.032;4.314;2023-12-28T05:15:45;100683.22;;;12.38
18161;BMP280;9205;52.032;4.314;2023-12-28T05:18:12;100681.69;;;12.33
18161;BMP280;9205;52.032;4.314;2023-12-28T05:20:40;100678.13;;;12.38
18161;BMP280;9205;52.032;4.314;2023-12-28T05:23:07;100690.84;;;12.38
18161;BMP280;9205;52.032;4.314;2023-12-28T05:25:34;100678.19;;;12.35
18161;BMP280;9205;52.032;4.314;2023-12-28T05:28:01;100688.19;;;12.41
18161;BMP280;9205;52.032;4.314;2023-12-28T05:30:28;100675.44;;;12.41
18161;BMP280;9205;52.032;4.314;2023-12-28T05:32:57;100687.63;;;12.33
18161;BMP280;9205;52.032;4.314;2023-12-28T05:35:24;100695.94;;;12.38
18161;BMP280;9205;52.032;4.314;2023-12-28T05:37:51;100684.22;;;12.33
18161;BMP280;9205;52.032;4.314;2023-12-28T05:40:18;100695.34;;;12.30
18161;BMP280;9205;52.032;4.314;2023-12-28T05:42:45;100686.78;;;12.33
18161;BMP280;9205;52.032;4.314;2023-12-28T05:45:12;100683.28;;;12.35
18161;BMP280;9205;52.032;4.314;2023-12-28T05:47:40;100684.81;;;12.41
18161;BMP280;9205;52.032;4.314;2023-12-28T05:50:09;100678.75;;;12.45
18161;BMP280;9205;52.032;4.314;2023-12-28T05:52:36;100694.94;;;12.44
18161;BMP280;9205;52.032;4.314;2023-12-28T05:55:04;100703.38;;;12.44
18161;BMP280;9205;52.032;4.314;2023-12-28T05:57:32;100711.97;;;12.42
18161;BMP280;9205;52.032;4.314;2023-12-28T05:59:59;100682.94;;;12.47
18161;BMP280;9205;52.032;4.314;2023-12-28T06:02:26;100707.47;;;12.49
18161;BMP280;9205;52.032;4.314;2023-12-28T06:04:53;100711.81;;;12.46
18161;BMP280;9205;52.032;4.314;2023-12-28T06:07:22;100725.16;;;12.54
18161;BMP280;9205;52.032;4.314;2023-12-28T06:09:49;100719.53;;;12.45
18161;BMP280;9205;52.032;4.314;2023-12-28T06:12:16;100703.84;;;12.56
18161;BMP280;9205;52.032;4.314;2023-12-28T06:14:42;100696.75;;;12.39
18161;BMP280;9205;52.032;4.314;2023-12-28T06:17:10;100709.34;;;12.45
18161;BMP280;9205;52.032;4.314;2023-12-28T06:19:37;100723.84;;;12.41
18161;BMP280;9205;52.032;4.314;2023-12-28T06:22:04;100698.38;;;12.41
18161;BMP280;9205;52.032;4.314;2023-12-28T06:24:37;100716.19;;;12.43
18161;BMP280;9205;52.032;4.314;2023-12-28T06:27:05;100705.13;;;12.42
18161;BMP280;9205;52.032;4.314;2023-12-28T06:29:32;100707.34;;;12.54
18161;BMP280;9205;52.032;4.314;2023-12-28T06:31:59;100687.38;;;12.41
18161;BMP280;9205;52.032;4.314;2023-12-28T06:34:26;100706.03;;;12.41
18161;BMP280;9205;52.032;4.314;2023-12-28T06:36:53;100717.47;;;12.28
18161;BMP280;9205;52.032;4.314;2023-12-28T06:39:21;100724.38;;;12.25
18161;BMP280;9205;52.032;4.314;2023-12-28T06:41:49;100715.06;;;12.24
18161;BMP280;9205;52.032;4.314;2023-12-28T06:44:16;100732.06;;;12.23
18161;BMP280;9205;52.032;4.314;2023-12-28T06:46:43;100722.75;;;12.22
18161;BMP280;9205;52.032;4.314;2023-12-28T06:49:11;100723.50;;;12.26
18161;BMP280;9205;52.032;4.314;2023-12-28T06:51:38;100725.22;;;12.25
18161;BMP280;9205;52.032;4.314;2023-12-28T06:54:05;100755.63;;;12.30
18161;BMP280;9205;52.032;4.314;2023-12-28T06:56:32;100728.78;;;12.20
18161;BMP280;9205;52.032;4.314;2023-12-28T06:59:00;100738.97;;;12.20
18161;BMP280;9205;52.032;4.314;2023-12-28T07:01:28;100757.44;;;12.26
18161;BMP280;9205;52.032;4.314;2023-12-28T07:03:55;100763.50;;;12.22
18161;BMP280;9205;52.032;4.314;2023-12-28T07:06:22;100763.50;;;12.22
18161;BMP280;9205;52.032;4.314;2023-12-28T07:08:49;100757.59;;;12.22
18161;BMP280;9205;52.032;4.314;2023-12-28T07:11:16;100774.81;;;12.14
18161;BMP280;9205;52.032;4.314;2023-12-28T07:13:43;100779.84;;;12.15
18161;BMP280;9205;52.032;4.314;2023-12-28T07:16:12;100778.97;;;12.16
18161;BMP280;9205;52.032;4.314;2023-12-28T07:18:40;100777.78;;;12.28
18161;BMP280;9205;52.032;4.314;2023-12-28T07:21:07;100766.88;;;12.23
18161;BMP280;9205;52.032;4.314;2023-12-28T07:23:35;100773.50;;;12.28
18161;BMP280;9205;52.032;4.314;2023-12-28T07:26:03;100790.53;;;12.26
18161;BMP280;9205;52.032;4.314;2023-12-28T07:28:31;100796.56;;;12.24
18161;BMP280;9205;52.032;4.314;2023-12-28T07:30:58;100789.84;;;12.21
18161;BMP280;9205;52.032;4.314;2023-12-28T07:33:26;100786.28;;;12.27
18161;BMP280;9205;52.032;4.314;2023-12-28T07:35:54;100791.38;;;12.27
18161;BMP280;9205;52.032;4.314;2023-12-28T07:38:21;100780.44;;;12.23
18161;BMP280;9205;52.032;4.314;2023-12-28T07:40:48;100809.97;;;12.30
18161;BMP280;9205;52.032;4.314;2023-12-28T07:43:15;100790.53;;;12.26
18161;BMP280;9205;52.032;4.314;2023-12-28T07:45:42;100794.00;;;12.24
18161;BMP280;9205;52.032;4.314;2023-12-28T07:48:09;100795.81;;;12.20
18161;BMP280;9205;52.032;4.314;2023-12-28T07:50:38;100796.00;;;12.14
18161;BMP280;9205;52.032;4.314;2023-12-28T07:53:05;100789.16;;;12.16
18161;BMP280;9205;52.032;4.314;2023-12-28T07:55:32;100800.25;;;12.14
18161;BMP280;9205;52.032;4.314;2023-12-28T07:57:59;100804.75;;;12.04
18161;BMP280;9205;52.032;4.314;2023-12-28T08:00:27;100806.25;;;12.11
18161;BMP280;9205;52.032;4.314;2023-12-28T08:02:54;100812.09;;;12.15
18161;BMP280;9205;52.032;4.314;2023-12-28T08:05:21;100814.56;;;12.18
18161;BMP280;9205;52.032;4.314;2023-12-28T08:07:49;100803.75;;;12.10
18161;BMP280;9205;52.032;4.314;2023-12-28T08:10:16;100818.09;;;12.14
18161;BMP280;9205;52.032;4.314;2023-12-28T08:12:44;100810.47;;;12.12
18161;BMP280;9205;52.032;4.314;2023-12-28T08:15:11;100839.47;;;12.07
18161;BMP280;9205;52.032;4.314;2023-12-28T08:17:38;100838.78;;;12.02
18161;BMP280;9205;52.032;4.314;2023-12-28T08:20:07;100826.06;;;12.02
18161;BMP280;9205;52.032;4.314;2023-12-28T08:22:34;100827.53;;;12.09
18161;BMP280;9205;52.032;4.314;2023-12-28T08:25:03;100827.47;;;12.12
18161;BMP280;9205;52.032;4.314;2023-12-28T08:27:31;100824.13;;;12.10
18161;BMP280;9205;52.032;4.314;2023-12-28T08:29:58;100818.09;;;12.14
18161;BMP280;9205;52.032;4.314;2023-12-28T08:32:25;100821.50;;;12.13
18161;BMP280;9205;52.032;4.314;2023-12-28T08:34:52;100833.19;;;12.20
18161;BMP280;9205;52.032;4.314;2023-12-28T08:37:20;100839.34;;;12.11
18161;BMP280;9205;52.032;4.314;2023-12-28T08:39:47;100832.44;;;12.16
18161;BMP280;9205;52.032;4.314;2023-12-28T08:42:16;100831.78;;;12.10
18161;BMP280;9205;52.032;4.314;2023-12-28T08:44:43;100850.41;;;12.12
18161;BMP280;9205;52.032;4.314;2023-12-28T08:47:10;100832.47;;;12.15
18161;BMP280;9205;52.032;4.314;2023-12-28T08:49:37;100844.44;;;12.11
18161;BMP280;9205;52.032;4.314;2023-12-28T08:52:04;100830.97;;;12.08
18161;BMP280;9205;52.032;4.314;2023-12-28T08:54:32;100849.94;;;11.98
18161;BMP280;9205;52.032;4.314;2023-12-28T08:56:59;100840.50;;;12.01
18161;BMP280;9205;52.032;4.314;2023-12-28T08:59:27;100826.97;;;11.99
18161;BMP280;9205;52.032;4.314;2023-12-28T09:01:55;100826.97;;;11.99
18161;BMP280;9205;52.032;4.314;2023-12-28T09:04:22;100840.22;;;12.12
18161;BMP280;9205;52.032;4.314;2023-12-28T09:06:49;100840.22;;;12.12
18161;BMP280;9205;52.032;4.314;2023-12-28T09:09:16;100840.41;;;12.04
18161;BMP280;9205;52.032;4.314;2023-12-28T09:11:43;100841.19;;;12.06
18161;BMP280;9205;52.032;4.314;2023-12-28T09:14:11;100861.41;;;12.12
18161;BMP280;9205;52.032;4.314;2023-12-28T09:16:39;100857.03;;;12.17
18161;BMP280;9205;52.032;4.314;2023-12-28T09:19:08;100845.00;;;12.22
18161;BMP280;9205;52.032;4.314;2023-12-28T09:21:35;100856.13;;;12.20
18161;BMP280;9205;52.032;4.314;2023-12-28T09:24:02;100860.97;;;12.27
18161;BMP280;9205;52.032;4.314;2023-12-28T09:26:30;100869.66;;;12.22
18161;BMP280;9205;52.032;4.314;2023-12-28T09:28:58;100857.03;;;12.17
18161;BMP280;9205;52.032;4.314;2023-12-28T09:31:28;100881.13;;;12.04
18161;BMP280;9205;52.032;4.314;2023-12-28T09:33:57;100878.88;;;11.94
18161;BMP280;9205;52.032;4.314;2023-12-28T09:36:25;100882.28;;;11.93
18161;BMP280;9205;52.032;4.314;2023-12-28T09:38:52;100884.91;;;11.91
18161;BMP280;9205;52.032;4.314;2023-12-28T09:41:26;100874.66;;;11.93
18161;BMP280;9205;52.032;4.314;2023-12-28T09:43:56;100879.03;;;11.88
18161;BMP280;9205;52.032;4.314;2023-12-28T09:46:25;100894.38;;;11.86
18161;BMP280;9205;52.032;4.314;2023-12-28T09:48:53;100882.53;;;11.84
18161;BMP280;9205;52.032;4.314;2023-12-28T09:51:23;100882.47;;;11.87
18161;BMP280;9205;52.032;4.314;2023-12-28T09:53:51;100886.53;;;11.94
18161;BMP280;9205;52.032;4.314;2023-12-28T09:56:18;100886.44;;;11.97
18161;BMP280;9205;52.032;4.314;2023-12-28T09:58:48;100894.00;;;12.00
18161;BMP280;9205;52.032;4.314;2023-12-28T10:01:18;100907.47;;;12.05
18161;BMP280;9205;52.032;4.314;2023-12-28T10:03:45;100895.38;;;12.11
18161;BMP280;9205;52.032;4.314;2023-12-28T10:06:12;100902.88;;;12.17
18161;BMP280;9205;52.032;4.314;2023-12-28T10:08:47;100893.47;;;12.19
18161;BMP280;9205;52.032;4.314;2023-12-28T10:11:16;100894.13;;;12.26
18161;BMP280;9205;52.032;4.314;2023-12-28T10:13:44;100900.81;;;12.30
18161;BMP280;9205;52.032;4.314;2023-12-28T10:16:12;100902.47;;;12.32
18161;BMP280;9205;52.032;4.314;2023-12-28T10:18:41;100890.38;;;12.39
18161;BMP280;9205;52.032;4.314;2023-12-28T10:21:09;100906.97;;;12.53
18161;BMP280;9205;52.032;4.314;2023-12-28T10:23:40;100889.25;;;12.48
18161;BMP280;9205;52.032;4.314;2023-12-28T10:26:09;100890.06;;;12.49
18161;BMP280;9205;52.032;4.314;2023-12-28T10:28:36;100891.06;;;12.45
18161;BMP280;9205;52.032;4.314;2023-12-28T10:31:04;100896.84;;;12.50
18161;BMP280;9205;52.032;4.314;2023-12-28T10:33:34;100889.13;;;12.53
18161;BMP280;9205;52.032;4.314;2023-12-28T10:36:06;100901.94;;;12.50
18161;BMP280;9205;52.032;4.314;2023-12-28T10:38:35;100898.22;;;12.61
18161;BMP280;9205;52.032;4.314;2023-12-28T10:41:07;100881.16;;;12.63
18161;BMP280;9205;52.032;4.314;2023-12-28T10:43:45;100884.72;;;12.58
18161;BMP280;9205;52.032;4.314;2023-12-28T10:46:25;100889.06;;;12.54
18161;BMP280;9205;52.032;4.314;2023-12-28T10:48:59;100920.31;;;12.61
18161;BMP280;9205;52.032;4.314;2023-12-28T10:51:28;100888.81;;;12.63
18161;BMP280;9205;52.032;4.314;2023-12-28T10:54:23;100899.75;;;12.67
18161;BMP280;9205;52.032;4.314;2023-12-28T10:57:04;100899.94;;;12.61
18161;BMP280;9205;52.032;4.314;2023-12-28T10:59:53;100887.13;;;12.64
18161;BMP280;9205;52.032;4.314;2023-12-28T11:02:28;100895.94;;;12.52
18161;BMP280;9205;52.032;4.314;2023-12-28T11:05:02;100901.00;;;12.54
18161;BMP280;9205;52.032;4.314;2023-12-28T11:07:31;100889.91;;;12.55
18161;BMP280;9205;52.032;4.314;2023-12-28T11:10:00;100904.34;;;12.56
18161;BMP280;9205;52.032;4.314;2023-12-28T11:12:32;100891.47;;;12.59
18161;BMP280;9205;52.032;4.314;2023-12-28T11:15:01;100895.00;;;12.55
18161;BMP280;9205;52.032;4.314;2023-12-28T11:17:31;100903.31;;;12.61
18161;BMP280;9205;52.032;4.314;2023-12-28T11:19:59;100894.91;;;12.58
18161;BMP280;9205;52.032;4.314;2023-12-28T11:22:28;100880.53;;;12.55
18161;BMP280;9205;52.032;4.314;2023-12-28T11:24:56;100887.38;;;12.55
18161;BMP280;9205;52.032;4.314;2023-12-28T11:27:23;100881.47;;;12.53
18161;BMP280;9205;52.032;4.314;2023-12-28T11:29:55;100881.22;;;12.62
18161;BMP280;9205;52.032;4.314;2023-12-28T11:32:24;100879.63;;;12.58
18161;BMP280;9205;52.032;4.314;2023-12-28T11:34:57;100873.44;;;12.66
18161;BMP280;9205;52.032;4.314;2023-12-28T11:37:27;100882.03;;;12.62
18161;BMP280;9205;52.032;4.314;2023-12-28T11:39:56;100886.31;;;12.62
18161;BMP280;9205;52.032;4.314;2023-12-28T11:42:25;100885.50;;;12.60
18161;BMP280;9205;52.032;4.314;2023-12-28T11:44:55;100887.00;;;12.67
18161;BMP280;9205;52.032;4.314;2023-12-28T11:47:24;100867.59;;;12.63
18161;BMP280;9205;52.032;4.314;2023-12-28T11:49:53;100883.72;;;12.63
18161;BMP280;9205;52.032;4.314;2023-12-28T11:52:26;100875.94;;;12.68
18161;BMP280;9205;52.032;4.314;2023-12-28T11:54:54;100877.47;;;12.73
18161;BMP280;9205;52.032;4.314;2023-12-28T11:57:21;100889.38;;;12.73
18161;BMP280;9205;52.032;4.314;2023-12-28T11:59:55;100873.78;;;12.83
18161;BMP280;9205;52.032;4.314;2023-12-28T12:02:23;100867.16;;;12.78
18161;BMP280;9205;52.032;4.314;2023-12-28T12:04:51;100861.91;;;12.82
18161;BMP280;9205;52.032;4.314;2023-12-28T12:07:18;100871.91;;;12.90
18161;BMP280;9205;52.032;4.314;2023-12-28T12:09:45;100839.72;;;12.86
18161;BMP280;9205;52.032;4.314;2023-12-28T12:12:12;100847.31;;;12.87
18161;BMP280;9205;52.032;4.314;2023-12-28T12:14:43;100836.38;;;12.84
18161;BMP280;9205;52.032;4.314;2023-12-28T12:17:11;100832.94;;;12.85
18161;BMP280;9205;52.032;4.314;2023-12-28T12:19:39;100868.56;;;12.88
18161;BMP280;9205;52.032;4.314;2023-12-28T12:22:06;100822.00;;;12.81
18161;BMP280;9205;52.032;4.314;2023-12-28T12:24:35;100826.13;;;12.85
18161;BMP280;9205;52.032;4.314;2023-12-28T12:27:03;100820.19;;;12.85
18161;BMP280;9205;52.032;4.314;2023-12-28T12:29:30;100837.09;;;12.89
18161;BMP280;9205;52.032;4.314;2023-12-28T12:31:58;100821.63;;;12.95
18161;BMP280;9205;52.032;4.314;2023-12-28T12:34:29;100822.63;;;12.89
18161;BMP280;9205;52.032;4.314;2023-12-28T12:36:56;100821.63;;;12.95
18161;BMP280;9205;52.032;4.314;2023-12-28T12:39:24;100810.44;;;12.99
18161;BMP280;9205;52.032;4.314;2023-12-28T12:41:52;100829.16;;;12.98
18161;BMP280;9205;52.032;4.314;2023-12-28T12:44:23;100810.63;;;12.93
18161;BMP280;9205;52.032;4.314;2023-12-28T12:46:57;100822.66;;;12.88
18161;BMP280;9205;52.032;4.314;2023-12-28T12:49:26;100814.06;;;12.92
18161;BMP280;9205;52.032;4.314;2023-12-28T12:51:55;100816.66;;;12.90
18161;BMP280;9205;52.032;4.314;2023-12-28T12:54:23;100814.88;;;12.92
18161;BMP280;9205;52.032;4.314;2023-12-28T12:56:50;100817.19;;;13.00
18161;BMP280;9205;52.032;4.314;2023-12-28T12:59:18;100811.31;;;12.98
18161;BMP280;9205;52.032;4.314;2023-12-28T13:01:46;100817.41;;;12.92
18161;BMP280;9205;52.032;4.314;2023-12-28T13:04:14;100814.13;;;12.90
18161;BMP280;9205;52.032;4.314;2023-12-28T13:06:43;100821.75;;;12.90
18161;BMP280;9205;52.032;4.314;2023-12-28T13:09:11;100808.25;;;12.85
18161;BMP280;9205;52.032;4.314;2023-12-28T13:11:39;100833.50;;;12.94
18161;BMP280;9205;52.032;4.314;2023-12-28T13:14:06;100831.47;;;12.78
18161;BMP280;9205;52.032;4.314;2023-12-28T13:16:35;100841.84;;;12.72
18161;BMP280;9205;52.032;4.314;2023-12-28T13:19:02;100836.47;;;12.52
18161;BMP280;9205;52.032;4.314;2023-12-28T13:21:30;100844.56;;;12.37
18161;BMP280;9205;52.032;4.314;2023-12-28T13:23:57;100837.28;;;12.25
18161;BMP280;9205;52.032;4.314;2023-12-28T13:26:28;100836.53;;;12.22
18161;BMP280;9205;52.032;4.314;2023-12-28T13:28:55;100827.25;;;12.19
18161;BMP280;9205;52.032;4.314;2023-12-28T13:31:23;100840.84;;;12.20
18161;BMP280;9205;52.032;4.314;2023-12-28T13:33:52;100835.63;;;12.24
18161;BMP280;9205;52.032;4.314;2023-12-28T13:36:19;100813.88;;;12.13
18161;BMP280;9205;52.032;4.314;2023-12-28T13:38:46;100823.94;;;12.16
18161;BMP280;9205;52.032;4.314;2023-12-28T13:41:13;100818.84;;;12.16
18161;BMP280;9205;52.032;4.314;2023-12-28T13:43:42;100821.25;;;12.22
18161;BMP280;9205;52.032;4.314;2023-12-28T13:46:09;100822.03;;;12.24
18161;BMP280;9205;52.032;4.314;2023-12-28T13:48:36;100815.88;;;12.31
18161;BMP280;9205;52.032;4.314;2023-12-28T13:51:05;100810.75;;;12.32
18161;BMP280;9205;52.032;4.314;2023-12-28T13:53:32;100812.72;;;12.23
18161;BMP280;9205;52.032;4.314;2023-12-28T13:56:01;100816.25;;;12.19
18161;BMP280;9205;52.032;4.314;2023-12-28T13:58:30;100819.53;;;12.22
18161;BMP280;9205;52.032;4.314;2023-12-28T14:00:58;100820.47;;;12.18
18161;BMP280;9205;52.032;4.314;2023-12-28T14:03:25;100815.13;;;12.27
18161;BMP280;9205;52.032;4.314;2023-12-28T14:05:52;100821.25;;;12.22
18161;BMP280;9205;52.032;4.314;2023-12-28T14:08:20;100812.69;;;12.24
18161;BMP280;9205;52.032;4.314;2023-12-28T14:10:47;100809.28;;;12.25
18161;BMP280;9205;52.032;4.314;2023-12-28T14:13:14;100823.81;;;12.20
18161;BMP280;9205;52.032;4.314;2023-12-28T14:15:41;100816.19;;;12.20